sensor_id;sensor_type;location;lat;lon;timestamp;temperature;humidity
14555;DHT22;7364;50.870;4.722;2023-09-19T00:00:20;16.70;99.90
14555;DHT22;7364;50.870;4.722;2023-09-19T00:02:52;16.70;99.90
14555;DHT22;7364;50.870;4.722;2023-09-19T00:05:21;16.60;99.90
14555;DHT22;7364;50.870;4.722;2023-09-19T00:07:50;16.50;99.90
14555;DHT22;7364;50.870;4.722;2023-09-19T00:10:20;16.50;99.90
14555;DHT22;7364;50.870;4.722;2023-09-19T00:12:52;16.40;99.90
14555;DHT22;7364;50.870;4.722;2023-09-19T00:15:21;16.40;99.90
14555;DHT22;7364;50.870;4.722;2023-09-19T00:17:48;16.50;99.90
14555;DHT22;7364;50.870;4.722;2023-09-19T00:20:19;16.40;99.90
14555;DHT22;7364;50.870;4.722;2023-09-19T00:22:49;16.40;99.90
14555;DHT22;7364;50.870;4.722;2023-09-19T00:25:18;16.40;99.90
14555;DHT22;7364;50.870;4.722;2023-09-19T00:27:45;16.30;99.90
14555;DHT22;7364;50.870;4.722;2023-09-19T00:30:19;16.30;99.90
14555;DHT22;7364;50.870;4.722;2023-09-19T00:32:47;16.20;99.90
14555;DHT22;7364;50.870;4.722;2023-09-19T00:35:15;16.20;99.90
14555;DHT22;7364;50.870;4.722;2023-09-19T00:37:42;16.20;99.90
14555;DHT22;7364;50.870;4.722;2023-09-19T00:40:11;16.30;99.90
14555;DHT22;7364;50.870;4.722;2023-09-19T00:42:41;16.20;99.90
14555;DHT22;7364;50.870;4.722;2023-09-19T00:45:09;16.20;99.90
14555;DHT22;7364;50.870;4.722;2023-09-19T00:47:44;16.20;99.90
14555;DHT22;7364;50.870;4.722;2023-09-19T00:50:15;16.30;99.90
14555;DHT22;7364;50.870;4.722;2023-09-19T00:52:44;16.20;99.90
14555;DHT22;7364;50.870;4.722;2023-09-19T00:55:11;16.20;99.90
14555;DHT22;7364;50.870;4.722;2023-09-19T00:57:40;16.30;99.90
14555;DHT22;7364;50.870;4.722;2023-09-19T01:00:09;16.30;99.90
14555;DHT22;7364;50.870;4.722;2023-09-19T01:02:43;16.40;99.90
14555;DHT22;7364;50.870;4.722;2023-09-19T01:05:11;16.30;99.90
14555;DHT22;7364;50.870;4.722;2023-09-19T01:10:18;16.20;99.90
14555;DHT22;7364;50.870;4.722;2023-09-19T01:12:55;16.10;99.90
14555;DHT22;7364;50.870;4.722;2023-09-19T01:15:38;16.10;99.90
14555;DHT22;7364;50.870;4.722;2023-09-19T01:18:27;16.10;99.90
14555;DHT22;7364;50.870;4.722;2023-09-19T01:21:03;16.10;99.90
14555;DHT22;7364;50.870;4.722;2023-09-19T01:26:43;16.30;99.90
14555;DHT22;7364;50.870;4.722;2023-09-19T01:29:28;16.20;99.90
14555;DHT22;7364;50.870;4.722;2023-09-19T01:32:05;16.30;99.90
14555;DHT22;7364;50.870;4.722;2023-09-19T01:34:44;16.20;99.90
14555;DHT22;7364;50.870;4.722;2023-09-19T01:37:13;16.30;99.90
14555;DHT22;7364;50.870;4.722;2023-09-19T01:39:44;16.20;99.90
14555;DHT22;7364;50.870;4.722;2023-09-19T01:42:21;16.30;99.90
14555;DHT22;7364;50.870;4.722;2023-09-19T01:44:57;16.20;99.90
14555;DHT22;7364;50.870;4.722;2023-09-19T01:47:33;16.10;99.90
14555;DHT22;7364;50.870;4.722;2023-09-19T01:50:13;16.00;99.90
14555;DHT22;7364;50.870;4.722;2023-09-19T01:52:48;15.90;99.90
14555;DHT22;7364;50.870;4.722;2023-09-19T01:55:17;15.90;99.90
14555;DHT22;7364;50.870;4.722;2023-09-19T01:57:54;15.90;99.90
14555;DHT22;7364;50.870;4.722;2023-09-19T02:00:23;16.00;99.90
14555;DHT22;7364;50.870;4.722;2023-09-19T02:02:52;16.00;99.90
14555;DHT22;7364;50.870;4.722;2023-09-19T02:05:24;16.20;99.90
14555;DHT22;7364;50.870;4.722;2023-09-19T02:07:53;16.00;99.90
14555;DHT22;7364;50.870;4.722;2023-09-19T02:10:21;15.90;99.90
14555;DHT22;7364;50.870;4.722;2023-09-19T02:12:50;15.90;99.90
14555;DHT22;7364;50.870;4.722;2023-09-19T02:15:18;15.90;99.90
14555;DHT22;7364;50.870;4.722;2023-09-19T02:17:45;16.00;99.90
14555;DHT22;7364;50.870;4.722;2023-09-19T02:20:14;15.90;99.90
14555;DHT22;7364;50.870;4.722;2023-09-19T02:22:43;15.90;99.90
14555;DHT22;7364;50.870;4.722;2023-09-19T02:25:10;15.90;99.90
14555;DHT22;7364;50.870;4.722;2023-09-19T02:27:41;15.90;99.90
14555;DHT22;7364;50.870;4.722;2023-09-19T02:30:09;16.00;99.90
14555;DHT22;7364;50.870;4.722;2023-09-19T02:32:36;16.10;99.90
14555;DHT22;7364;50.870;4.722;2023-09-19T02:35:06;16.20;99.90
14555;DHT22;7364;50.870;4.722;2023-09-19T02:37:38;16.20;99.90
14555;DHT22;7364;50.870;4.722;2023-09-19T02:40:06;16.20;99.90
14555;DHT22;7364;50.870;4.722;2023-09-19T02:42:45;16.20;99.90
14555;DHT22;7364;50.870;4.722;2023-09-19T02:45:16;16.30;99.90
14555;DHT22;7364;50.870;4.722;2023-09-19T02:47:44;16.10;99.90
14555;DHT22;7364;50.870;4.722;2023-09-19T02:50:12;16.10;99.90
14555;DHT22;7364;50.870;4.722;2023-09-19T02:52:43;16.20;99.90
14555;DHT22;7364;50.870;4.722;2023-09-19T02:55:12;16.10;99.90
14555;DHT22;7364;50.870;4.722;2023-09-19T02:57:46;16.20;99.90
14555;DHT22;7364;50.870;4.722;2023-09-19T03:00:14;16.30;99.90
14555;DHT22;7364;50.870;4.722;2023-09-19T03:02:41;16.20;99.90
14555;DHT22;7364;50.870;4.722;2023-09-19T03:05:10;16.30;99.90
14555;DHT22;7364;50.870;4.722;2023-09-19T03:07:38;16.30;99.90
14555;DHT22;7364;50.870;4.722;2023-09-19T03:10:08;16.20;99.90
14555;DHT22;7364;50.870;4.722;2023-09-19T03:12:37;16.10;99.90
14555;DHT22;7364;50.870;4.722;2023-09-19T03:15:06;16.00;99.90
14555;DHT22;7364;50.870;4.722;2023-09-19T03:17:35;16.20;99.90
14555;DHT22;7364;50.870;4.722;2023-09-19T03:20:03;16.30;99.90
14555;DHT22;7364;50.870;4.722;2023-09-19T03:22:35;16.40;99.90
14555;DHT22;7364;50.870;4.722;2023-09-19T03:25:02;16.50;99.90
14555;DHT22;7364;50.870;4.722;2023-09-19T03:27:35;16.40;99.90
14555;DHT22;7364;50.870;4.722;2023-09-19T03:30:03;16.50;99.90
14555;DHT22;7364;50.870;4.722;2023-09-19T03:32:34;16.40;99.90
14555;DHT22;7364;50.870;4.722;2023-09-19T03:35:01;16.30;99.90
14555;DHT22;7364;50.870;4.722;2023-09-19T03:37:31;16.30;99.90
14555;DHT22;7364;50.870;4.722;2023-09-19T03:39:59;16.30;99.90
14555;DHT22;7364;50.870;4.722;2023-09-19T03:42:30;16.40;99.90
14555;DHT22;7364;50.870;4.722;2023-09-19T03:44:59;16.40;99.90
14555;DHT22;7364;50.870;4.722;2023-09-19T03:47:31;16.40;99.90
14555;DHT22;7364;50.870;4.722;2023-09-19T03:49:59;16.20;99.90
14555;DHT22;7364;50.870;4.722;2023-09-19T03:52:26;16.30;99.90
14555;DHT22;7364;50.870;4.722;2023-09-19T03:54:53;16.30;99.90
14555;DHT22;7364;50.870;4.722;2023-09-19T03:57:21;16.20;99.90
14555;DHT22;7364;50.870;4.722;2023-09-19T03:59:56;16.10;99.90
14555;DHT22;7364;50.870;4.722;2023-09-19T04:02:24;16.20;99.90
14555;DHT22;7364;50.870;4.722;2023-09-19T04:04:52;16.30;99.90
14555;DHT22;7364;50.870;4.722;2023-09-19T04:07:19;16.30;99.90
14555;DHT22;7364;50.870;4.722;2023-09-19T04:09:48;16.20;99.90
14555;DHT22;7364;50.870;4.722;2023-09-19T04:12:16;16.10;99.90
14555;DHT22;7364;50.870;4.722;2023-09-19T04:14:43;16.10;99.90
14555;DHT22;7364;50.870;4.722;2023-09-19T04:17:11;16.10;99.90
14555;DHT22;7364;50.870;4.722;2023-09-19T04:19:41;16.00;99.90
14555;DHT22;7364;50.870;4.722;2023-09-19T04:22:08;16.00;99.90
14555;DHT22;7364;50.870;4.722;2023-09-19T04:24:36;15.80;99.90
14555;DHT22;7364;50.870;4.722;2023-09-19T04:27:04;15.80;99.90
14555;DHT22;7364;50.870;4.722;2023-09-19T04:29:33;15.80;99.90
14555;DHT22;7364;50.870;4.722;2023-09-19T04:32:00;15.70;99.90
14555;DHT22;7364;50.870;4.722;2023-09-19T04:34:30;15.70;99.90
14555;DHT22;7364;50.870;4.722;2023-09-19T04:36:59;15.70;99.90
14555;DHT22;7364;50.870;4.722;2023-09-19T04:39:26;15.70;99.90
14555;DHT22;7364;50.870;4.722;2023-09-19T04:41:54;15.50;99.90
14555;DHT22;7364;50.870;4.722;2023-09-19T04:44:23;15.60;99.90
14555;DHT22;7364;50.870;4.722;2023-09-19T04:46:51;15.70;99.90
14555;DHT22;7364;50.870;4.722;2023-09-19T04:49:18;15.90;99.90
14555;DHT22;7364;50.870;4.722;2023-09-19T04:51:45;15.80;99.90
14555;DHT22;7364;50.870;4.722;2023-09-19T04:54:15;15.90;99.90
14555;DHT22;7364;50.870;4.722;2023-09-19T04:56:44;15.90;99.90
14555;DHT22;7364;50.870;4.722;2023-09-19T04:59:11;15.90;99.90
14555;DHT22;7364;50.870;4.722;2023-09-19T05:01:38;15.90;99.90
14555;DHT22;7364;50.870;4.722;2023-09-19T05:04:06;15.90;99.90
14555;DHT22;7364;50.870;4.722;2023-09-19T05:06:33;15.90;99.90
14555;DHT22;7364;50.870;4.722;2023-09-19T05:09:01;15.70;99.90
14555;DHT22;7364;50.870;4.722;2023-09-19T05:11:32;15.70;99.90
14555;DHT22;7364;50.870;4.722;2023-09-19T05:14:00;15.80;99.90
14555;DHT22;7364;50.870;4.722;2023-09-19T05:16:30;15.80;99.90
14555;DHT22;7364;50.870;4.722;2023-09-19T05:18:59;15.70;99.90
14555;DHT22;7364;50.870;4.722;2023-09-19T05:21:27;15.70;99.90
14555;DHT22;7364;50.870;4.722;2023-09-19T05:23:56;15.70;99.90
14555;DHT22;7364;50.870;4.722;2023-09-19T05:26:23;15.60;99.90
14555;DHT22;7364;50.870;4.722;2023-09-19T05:28:52;15.40;99.90
14555;DHT22;7364;50.870;4.722;2023-09-19T05:31:19;15.40;99.90
14555;DHT22;7364;50.870;4.722;2023-09-19T05:33:47;15.60;99.90
14555;DHT22;7364;50.870;4.722;2023-09-19T05:36:14;15.60;99.90
14555;DHT22;7364;50.870;4.722;2023-09-19T05:38:42;15.70;99.90
14555;DHT22;7364;50.870;4.722;2023-09-19T05:41:10;15.70;99.90
14555;DHT22;7364;50.870;4.722;2023-09-19T05:43:39;15.60;99.90
14555;DHT22;7364;50.870;4.722;2023-09-19T05:46:08;15.70;99.90
14555;DHT22;7364;50.870;4.722;2023-09-19T05:48:37;15.50;99.90
14555;DHT22;7364;50.870;4.722;2023-09-19T05:51:05;15.50;99.90
14555;DHT22;7364;50.870;4.722;2023-09-19T05:53:33;15.60;99.90
14555;DHT22;7364;50.870;4.722;2023-09-19T05:56:01;15.60;99.90
14555;DHT22;7364;50.870;4.722;2023-09-19T05:58:28;15.60;99.90
14555;DHT22;7364;50.870;4.722;2023-09-19T06:00:55;15.50;99.90
14555;DHT22;7364;50.870;4.722;2023-09-19T06:03:25;15.60;99.90
14555;DHT22;7364;50.870;4.722;2023-09-19T06:05:52;15.70;99.90
14555;DHT22;7364;50.870;4.722;2023-09-19T06:08:23;15.70;99.90
14555;DHT22;7364;50.870;4.722;2023-09-19T06:10:51;15.70;99.90
14555;DHT22;7364;50.870;4.722;2023-09-19T06:13:19;15.70;99.90
14555;DHT22;7364;50.870;4.722;2023-09-19T06:15:46;15.70;99.90
14555;DHT22;7364;50.870;4.722;2023-09-19T06:18:15;15.80;99.90
14555;DHT22;7364;50.870;4.722;2023-09-19T06:20:47;15.80;99.90
14555;DHT22;7364;50.870;4.722;2023-09-19T06:23:16;15.80;99.90
14555;DHT22;7364;50.870;4.722;2023-09-19T06:25:46;15.80;99.90
14555;DHT22;7364;50.870;4.722;2023-09-19T06:28:15;15.80;99.90
14555;DHT22;7364;50.870;4.722;2023-09-19T06:30:46;16.00;99.90
14555;DHT22;7364;50.870;4.722;2023-09-19T06:33:13;15.90;99.90
14555;DHT22;7364;50.870;4.722;2023-09-19T06:35:42;15.90;99.90
14555;DHT22;7364;50.870;4.722;2023-09-19T06:38:14;15.90;99.90
14555;DHT22;7364;50.870;4.722;2023-09-19T06:40:45;15.80;99.90
14555;DHT22;7364;50.870;4.722;2023-09-19T06:43:12;15.90;99.90
14555;DHT22;7364;50.870;4.722;2023-09-19T06:45:40;16.10;99.90
14555;DHT22;7364;50.870;4.722;2023-09-19T06:48:08;16.10;99.90
14555;DHT22;7364;50.870;4.722;2023-09-19T06:50:36;16.10;99.90
14555;DHT22;7364;50.870;4.722;2023-09-19T06:53:04;16.10;99.90
14555;DHT22;7364;50.870;4.722;2023-09-19T06:55:33;16.20;99.90
14555;DHT22;7364;50.870;4.722;2023-09-19T06:58:00;16.30;99.90
14555;DHT22;7364;50.870;4.722;2023-09-19T07:00:27;16.40;99.90
14555;DHT22;7364;50.870;4.722;2023-09-19T07:02:58;16.50;99.90
14555;DHT22;7364;50.870;4.722;2023-09-19T07:05:27;16.50;99.90
14555;DHT22;7364;50.870;4.722;2023-09-19T07:07:55;16.60;99.90
14555;DHT22;7364;50.870;4.722;2023-09-19T07:10:25;16.60;99.90
14555;DHT22;7364;50.870;4.722;2023-09-19T07:12:58;16.50;99.90
14555;DHT22;7364;50.870;4.722;2023-09-19T07:15:26;16.50;99.90
14555;DHT22;7364;50.870;4.722;2023-09-19T07:17:54;16.60;99.90
14555;DHT22;7364;50.870;4.722;2023-09-19T07:20:22;16.70;99.90
14555;DHT22;7364;50.870;4.722;2023-09-19T07:22:51;16.70;99.90
14555;DHT22;7364;50.870;4.722;2023-09-19T07:25:20;16.60;99.90
14555;DHT22;7364;50.870;4.722;2023-09-19T07:27:48;16.60;99.90
14555;DHT22;7364;50.870;4.722;2023-09-19T07:30:18;16.50;99.90
14555;DHT22;7364;50.870;4.722;2023-09-19T07:32:45;16.40;99.90
14555;DHT22;7364;50.870;4.722;2023-09-19T07:35:12;16.50;99.90
14555;DHT22;7364;50.870;4.722;2023-09-19T07:37:40;16.60;99.90
14555;DHT22;7364;50.870;4.722;2023-09-19T07:40:08;16.60;99.90
14555;DHT22;7364;50.870;4.722;2023-09-19T07:42:36;16.60;99.90
14555;DHT22;7364;50.870;4.722;2023-09-19T07:45:08;16.80;99.90
14555;DHT22;7364;50.870;4.722;2023-09-19T07:47:44;16.80;99.90
14555;DHT22;7364;50.870;4.722;2023-09-19T07:50:12;17.00;99.90
14555;DHT22;7364;50.870;4.722;2023-09-19T07:52:41;17.00;99.90
14555;DHT22;7364;50.870;4.722;2023-09-19T07:55:09;17.10;99.90
14555;DHT22;7364;50.870;4.722;2023-09-19T07:57:42;17.30;99.90
14555;DHT22;7364;50.870;4.722;2023-09-19T08:00:10;17.30;99.90
14555;DHT22;7364;50.870;4.722;2023-09-19T08:02:38;17.10;99.90
14555;DHT22;7364;50.870;4.722;2023-09-19T08:05:08;17.20;99.90
14555;DHT22;7364;50.870;4.722;2023-09-19T08:07:37;17.20;99.90
14555;DHT22;7364;50.870;4.722;2023-09-19T08:10:05;17.30;99.90
14555;DHT22;7364;50.870;4.722;2023-09-19T08:12:33;17.40;99.90
14555;DHT22;7364;50.870;4.722;2023-09-19T08:15:01;17.50;99.90
14555;DHT22;7364;50.870;4.722;2023-09-19T08:17:34;17.70;99.90
14555;DHT22;7364;50.870;4.722;2023-09-19T08:20:01;17.60;99.90
14555;DHT22;7364;50.870;4.722;2023-09-19T08:22:32;17.60;99.90
14555;DHT22;7364;50.870;4.722;2023-09-19T08:25:00;17.60;99.90
14555;DHT22;7364;50.870;4.722;2023-09-19T08:27:31;17.60;99.90
14555;DHT22;7364;50.870;4.722;2023-09-19T08:29:58;17.70;99.90
14555;DHT22;7364;50.870;4.722;2023-09-19T08:32:25;18.00;99.90
14555;DHT22;7364;50.870;4.722;2023-09-19T08:34:53;18.10;99.90
14555;DHT22;7364;50.870;4.722;2023-09-19T08:37:20;18.20;99.90
14555;DHT22;7364;50.870;4.722;2023-09-19T08:39:49;18.20;99.90
14555;DHT22;7364;50.870;4.722;2023-09-19T08:42:17;18.10;99.90
14555;DHT22;7364;50.870;4.722;2023-09-19T08:44:47;17.90;99.90
14555;DHT22;7364;50.870;4.722;2023-09-19T08:47:15;18.00;99.90
14555;DHT22;7364;50.870;4.722;2023-09-19T08:49:53;18.10;99.90
14555;DHT22;7364;50.870;4.722;2023-09-19T08:52:27;18.10;99.90
14555;DHT22;7364;50.870;4.722;2023-09-19T08:54:59;18.20;99.90
14555;DHT22;7364;50.870;4.722;2023-09-19T08:57:34;18.20;99.90
14555;DHT22;7364;50.870;4.722;2023-09-19T09:00:06;18.10;99.90
14555;DHT22;7364;50.870;4.722;2023-09-19T09:02:37;18.30;99.90
14555;DHT22;7364;50.870;4.722;2023-09-19T09:05:07;18.10;99.90
14555;DHT22;7364;50.870;4.722;2023-09-19T09:07:36;18.30;99.90
14555;DHT22;7364;50.870;4.722;2023-09-19T09:10:07;18.40;99.90
14555;DHT22;7364;50.870;4.722;2023-09-19T09:12:35;18.70;99.90
14555;DHT22;7364;50.870;4.722;2023-09-19T09:15:07;18.80;99.90
14555;DHT22;7364;50.870;4.722;2023-09-19T09:17:37;18.90;99.90
14555;DHT22;7364;50.870;4.722;2023-09-19T09:20:06;18.80;99.90
14555;DHT22;7364;50.870;4.722;2023-09-19T09:22:36;18.90;99.90
14555;DHT22;7364;50.870;4.722;2023-09-19T09:25:13;18.90;99.90
14555;DHT22;7364;50.870;4.722;2023-09-19T09:27:40;19.10;99.90
14555;DHT22;7364;50.870;4.722;2023-09-19T09:30:09;19.20;99.90
14555;DHT22;7364;50.870;4.722;2023-09-19T09:32:39;19.50;99.90
14555;DHT22;7364;50.870;4.722;2023-09-19T09:35:08;19.50;99.90
14555;DHT22;7364;50.870;4.722;2023-09-19T09:37:36;19.60;99.90
14555;DHT22;7364;50.870;4.722;2023-09-19T09:40:05;19.50;99.90
14555;DHT22;7364;50.870;4.722;2023-09-19T09:42:51;19.60;99.90
14555;DHT22;7364;50.870;4.722;2023-09-19T09:45:25;20.00;99.90
14555;DHT22;7364;50.870;4.722;2023-09-19T09:48:04;20.30;99.90
14555;DHT22;7364;50.870;4.722;2023-09-19T09:50:47;20.40;99.90
14555;DHT22;7364;50.870;4.722;2023-09-19T09:53:22;20.50;99.90
14555;DHT22;7364;50.870;4.722;2023-09-19T09:56:05;20.50;99.90
14555;DHT22;7364;50.870;4.722;2023-09-19T09:58:35;20.30;99.90
14555;DHT22;7364;50.870;4.722;2023-09-19T10:01:04;20.10;99.90
14555;DHT22;7364;50.870;4.722;2023-09-19T10:03:37;20.20;99.90
14555;DHT22;7364;50.870;4.722;2023-09-19T10:06:11;20.50;99.90
14555;DHT22;7364;50.870;4.722;2023-09-19T10:09:00;20.60;99.90
14555;DHT22;7364;50.870;4.722;2023-09-19T10:11:42;20.30;99.90
14555;DHT22;7364;50.870;4.722;2023-09-19T10:14:12;20.30;99.90
14555;DHT22;7364;50.870;4.722;2023-09-19T10:16:44;20.40;99.90
14555;DHT22;7364;50.870;4.722;2023-09-19T10:19:16;20.50;99.90
14555;DHT22;7364;50.870;4.722;2023-09-19T10:21:50;20.30;99.90
14555;DHT22;7364;50.870;4.722;2023-09-19T10:24:19;20.50;99.90
14555;DHT22;7364;50.870;4.722;2023-09-19T10:26:48;20.60;99.90
14555;DHT22;7364;50.870;4.722;2023-09-19T10:29:25;20.50;99.30
14555;DHT22;7364;50.870;4.722;2023-09-19T10:32:03;20.60;99.90
14555;DHT22;7364;50.870;4.722;2023-09-19T10:34:37;20.90;99.90
14555;DHT22;7364;50.870;4.722;2023-09-19T10:37:15;21.30;99.90
14555;DHT22;7364;50.870;4.722;2023-09-19T10:39:48;21.00;99.30
14555;DHT22;7364;50.870;4.722;2023-09-19T10:42:22;20.70;99.90
14555;DHT22;7364;50.870;4.722;2023-09-19T10:44:58;21.00;99.90
14555;DHT22;7364;50.870;4.722;2023-09-19T10:47:28;20.60;99.90
14555;DHT22;7364;50.870;4.722;2023-09-19T10:50:00;21.10;99.90
14555;DHT22;7364;50.870;4.722;2023-09-19T10:52:38;22.20;98.70
14555;DHT22;7364;50.870;4.722;2023-09-19T10:55:17;21.90;98.90
14555;DHT22;7364;50.870;4.722;2023-09-19T10:57:45;22.20;97.90
14555;DHT22;7364;50.870;4.722;2023-09-19T11:00:16;22.30;97.80
14555;DHT22;7364;50.870;4.722;2023-09-19T11:03:21;23.20;96.90
14555;DHT22;7364;50.870;4.722;2023-09-19T11:06:03;23.50;95.70
14555;DHT22;7364;50.870;4.722;2023-09-19T11:08:58;24.00;95.70
14555;DHT22;7364;50.870;4.722;2023-09-19T11:11:49;24.00;94.80
14555;DHT22;7364;50.870;4.722;2023-09-19T11:14:42;24.10;94.40
14555;DHT22;7364;50.870;4.722;2023-09-19T11:17:42;24.30;94.50
14555;DHT22;7364;50.870;4.722;2023-09-19T11:20:23;25.00;94.00
14555;DHT22;7364;50.870;4.722;2023-09-19T11:23:23;24.60;93.80
14555;DHT22;7364;50.870;4.722;2023-09-19T11:25:52;24.70;93.10
14555;DHT22;7364;50.870;4.722;2023-09-19T11:28:35;24.80;93.50
14555;DHT22;7364;50.870;4.722;2023-09-19T11:31:41;25.30;92.60
14555;DHT22;7364;50.870;4.722;2023-09-19T11:34:39;25.30;92.40
14555;DHT22;7364;50.870;4.722;2023-09-19T11:40:11;25.30;91.30
14555;DHT22;7364;50.870;4.722;2023-09-19T11:42:44;25.40;92.00
14555;DHT22;7364;50.870;4.722;2023-09-19T11:48:24;25.40;91.00
14555;DHT22;7364;50.870;4.722;2023-09-19T11:50:54;24.80;91.80
14555;DHT22;7364;50.870;4.722;2023-09-19T11:53:23;24.40;92.40
14555;DHT22;7364;50.870;4.722;2023-09-19T11:55:51;24.40;92.00
14555;DHT22;7364;50.870;4.722;2023-09-19T11:58:19;24.20;92.60
14555;DHT22;7364;50.870;4.722;2023-09-19T12:00:53;24.30;92.40
14555;DHT22;7364;50.870;4.722;2023-09-19T12:03:29;24.10;92.30
14555;DHT22;7364;50.870;4.722;2023-09-19T12:05:58;24.40;92.80
14555;DHT22;7364;50.870;4.722;2023-09-19T12:08:28;24.50;92.20
14555;DHT22;7364;50.870;4.722;2023-09-19T12:10:56;24.60;91.60
14555;DHT22;7364;50.870;4.722;2023-09-19T12:13:23;24.20;91.90
14555;DHT22;7364;50.870;4.722;2023-09-19T12:15:51;24.80;92.30
14555;DHT22;7364;50.870;4.722;2023-09-19T12:18:28;24.90;91.50
14555;DHT22;7364;50.870;4.722;2023-09-19T12:20:55;23.90;92.90
14555;DHT22;7364;50.870;4.722;2023-09-19T12:23:25;23.50;92.60
14555;DHT22;7364;50.870;4.722;2023-09-19T12:25:53;24.10;92.80
14555;DHT22;7364;50.870;4.722;2023-09-19T12:28:26;23.70;92.70
14555;DHT22;7364;50.870;4.722;2023-09-19T12:30:56;23.60;92.80
14555;DHT22;7364;50.870;4.722;2023-09-19T12:33:23;23.00;93.20
14555;DHT22;7364;50.870;4.722;2023-09-19T12:35:51;22.70;93.50
14555;DHT22;7364;50.870;4.722;2023-09-19T12:38:25;22.50;94.10
14555;DHT22;7364;50.870;4.722;2023-09-19T12:40:55;22.60;94.10
14555;DHT22;7364;50.870;4.722;2023-09-19T12:43:26;22.60;94.30
14555;DHT22;7364;50.870;4.722;2023-09-19T12:45:56;22.60;94.80
14555;DHT22;7364;50.870;4.722;2023-09-19T12:48:26;22.40;94.80
14555;DHT22;7364;50.870;4.722;2023-09-19T12:51:04;22.40;95.40
14555;DHT22;7364;50.870;4.722;2023-09-19T12:53:35;22.60;95.20
14555;DHT22;7364;50.870;4.722;2023-09-19T12:56:06;22.70;95.40
14555;DHT22;7364;50.870;4.722;2023-09-19T12:58:47;22.80;94.80
14555;DHT22;7364;50.870;4.722;2023-09-19T13:01:15;23.50;94.40
14555;DHT22;7364;50.870;4.722;2023-09-19T13:03:43;25.00;93.00
14555;DHT22;7364;50.870;4.722;2023-09-19T13:06:11;27.30;90.30
14555;DHT22;7364;50.870;4.722;2023-09-19T13:08:41;28.10;86.30
14555;DHT22;7364;50.870;4.722;2023-09-19T13:11:11;28.50;84.30
14555;DHT22;7364;50.870;4.722;2023-09-19T13:13:41;28.50;84.30
14555;DHT22;7364;50.870;4.722;2023-09-19T13:16:10;27.70;85.20
14555;DHT22;7364;50.870;4.722;2023-09-19T13:18:47;26.50;87.10
14555;DHT22;7364;50.870;4.722;2023-09-19T13:21:27;25.80;88.90
14555;DHT22;7364;50.870;4.722;2023-09-19T13:24:17;24.90;90.60
14555;DHT22;7364;50.870;4.722;2023-09-19T13:26:44;25.00;90.30
14555;DHT22;7364;50.870;4.722;2023-09-19T13:29:11;24.90;91.00
14555;DHT22;7364;50.870;4.722;2023-09-19T13:31:40;24.60;90.90
14555;DHT22;7364;50.870;4.722;2023-09-19T13:34:09;24.10;91.60
14555;DHT22;7364;50.870;4.722;2023-09-19T13:36:36;23.60;92.50
14555;DHT22;7364;50.870;4.722;2023-09-19T13:39:05;23.30;93.00
14555;DHT22;7364;50.870;4.722;2023-09-19T13:41:35;23.10;93.50
14555;DHT22;7364;50.870;4.722;2023-09-19T13:44:02;23.00;94.00
14555;DHT22;7364;50.870;4.722;2023-09-19T13:46:30;23.10;94.00
14555;DHT22;7364;50.870;4.722;2023-09-19T13:49:00;23.30;93.80
14555;DHT22;7364;50.870;4.722;2023-09-19T13:51:30;23.40;93.40
14555;DHT22;7364;50.870;4.722;2023-09-19T13:53:58;23.20;93.70
14555;DHT22;7364;50.870;4.722;2023-09-19T13:56:27;23.40;93.40
14555;DHT22;7364;50.870;4.722;2023-09-19T13:58:57;23.30;93.40
14555;DHT22;7364;50.870;4.722;2023-09-19T14:01:24;23.20;93.30
14555;DHT22;7364;50.870;4.722;2023-09-19T14:03:53;23.00;93.70
14555;DHT22;7364;50.870;4.722;2023-09-19T14:06:23;23.00;93.90
14555;DHT22;7364;50.870;4.722;2023-09-19T14:08:51;23.10;93.80
14555;DHT22;7364;50.870;4.722;2023-09-19T14:11:19;22.90;94.10
14555;DHT22;7364;50.870;4.722;2023-09-19T14:13:48;23.10;93.80
14555;DHT22;7364;50.870;4.722;2023-09-19T14:16:16;22.90;93.60
14555;DHT22;7364;50.870;4.722;2023-09-19T14:18:45;23.20;93.80
14555;DHT22;7364;50.870;4.722;2023-09-19T14:21:12;23.10;94.10
14555;DHT22;7364;50.870;4.722;2023-09-19T14:23:40;23.10;94.00
14555;DHT22;7364;50.870;4.722;2023-09-19T14:26:09;23.00;93.80
14555;DHT22;7364;50.870;4.722;2023-09-19T14:28:36;22.70;94.10
14555;DHT22;7364;50.870;4.722;2023-09-19T14:31:07;22.50;94.20
14555;DHT22;7364;50.870;4.722;2023-09-19T14:33:37;22.40;94.40
14555;DHT22;7364;50.870;4.722;2023-09-19T14:36:06;22.50;94.90
14555;DHT22;7364;50.870;4.722;2023-09-19T14:38:35;22.50;94.70
14555;DHT22;7364;50.870;4.722;2023-09-19T14:41:02;22.60;94.40
14555;DHT22;7364;50.870;4.722;2023-09-19T14:43:30;22.60;94.30
14555;DHT22;7364;50.870;4.722;2023-09-19T14:46:03;22.90;94.60
14555;DHT22;7364;50.870;4.722;2023-09-19T14:48:31;23.50;93.90
14555;DHT22;7364;50.870;4.722;2023-09-19T14:51:02;24.00;93.30
14555;DHT22;7364;50.870;4.722;2023-09-19T14:53:32;24.30;92.40
14555;DHT22;7364;50.870;4.722;2023-09-19T14:56:00;24.40;92.20
14555;DHT22;7364;50.870;4.722;2023-09-19T14:58:28;24.30;92.20
14555;DHT22;7364;50.870;4.722;2023-09-19T15:01:03;24.00;92.80
14555;DHT22;7364;50.870;4.722;2023-09-19T15:03:33;23.50;93.30
14555;DHT22;7364;50.870;4.722;2023-09-19T15:06:01;23.10;94.00
14555;DHT22;7364;50.870;4.722;2023-09-19T15:08:28;23.00;93.90
14555;DHT22;7364;50.870;4.722;2023-09-19T15:10:55;23.10;93.70
14555;DHT22;7364;50.870;4.722;2023-09-19T15:13:24;23.30;93.40
14555;DHT22;7364;50.870;4.722;2023-09-19T15:15:59;23.20;94.10
14555;DHT22;7364;50.870;4.722;2023-09-19T15:18:27;23.10;93.80
14555;DHT22;7364;50.870;4.722;2023-09-19T15:20:55;22.90;94.00
14555;DHT22;7364;50.870;4.722;2023-09-19T15:23:23;22.70;94.30
14555;DHT22;7364;50.870;4.722;2023-09-19T15:25:50;22.50;94.50
14555;DHT22;7364;50.870;4.722;2023-09-19T15:28:19;22.70;94.60
14555;DHT22;7364;50.870;4.722;2023-09-19T15:30:48;22.40;95.10
14555;DHT22;7364;50.870;4.722;2023-09-19T15:33:15;22.30;95.10
14555;DHT22;7364;50.870;4.722;2023-09-19T15:35:43;22.00;95.60
14555;DHT22;7364;50.870;4.722;2023-09-19T15:38:12;21.90;95.50
14555;DHT22;7364;50.870;4.722;2023-09-19T15:40:46;21.60;95.80
14555;DHT22;7364;50.870;4.722;2023-09-19T15:43:14;21.50;96.00
14555;DHT22;7364;50.870;4.722;2023-09-19T15:45:42;21.50;95.90
14555;DHT22;7364;50.870;4.722;2023-09-19T15:48:10;21.50;96.30
14555;DHT22;7364;50.870;4.722;2023-09-19T15:50:37;21.70;96.30
14555;DHT22;7364;50.870;4.722;2023-09-19T15:53:05;21.60;96.00
14555;DHT22;7364;50.870;4.722;2023-09-19T15:55:38;21.70;96.50
14555;DHT22;7364;50.870;4.722;2023-09-19T15:58:09;21.30;96.40
14555;DHT22;7364;50.870;4.722;2023-09-19T16:00:40;21.20;96.50
14555;DHT22;7364;50.870;4.722;2023-09-19T16:03:07;21.20;96.90
14555;DHT22;7364;50.870;4.722;2023-09-19T16:05:36;21.10;96.90
14555;DHT22;7364;50.870;4.722;2023-09-19T16:08:06;21.20;97.30
14555;DHT22;7364;50.870;4.722;2023-09-19T16:10:37;21.30;97.00
14555;DHT22;7364;50.870;4.722;2023-09-19T16:13:05;21.20;96.90
14555;DHT22;7364;50.870;4.722;2023-09-19T16:15:41;21.20;96.90
14555;DHT22;7364;50.870;4.722;2023-09-19T16:18:10;21.20;97.00